sensor_id;sensor_type;location;lat;lon;timestamp;pressure;altitude;pressure_sealevel;temperature;humidity
77583;BME280;66726;52.388;9.986;2023-04-16T00:01:47;101083.28;;;9.16;85.75
77583;BME280;66726;52.388;9.986;2023-04-16T00:04:19;101085.94;;;9.16;86.18
77583;BME280;66726;52.388;9.986;2023-04-16T00:06:51;101083.41;;;9.15;86.02
77583;BME280;66726;52.388;9.986;2023-04-16T00:09:22;101084.94;;;9.08;86.19
77583;BME280;66726;52.388;9.986;2023-04-16T00:11:56;101088.63;;;9.07;86.40
77583;BME280;66726;52.388;9.986;2023-04-16T00:14:28;101085.13;;;9.06;86.43
77583;BME280;66726;52.388;9.986;2023-04-16T00:17:00;101098.31;;;9.08;86.59
77583;BME280;66726;52.388;9.986;2023-04-16T00:19:32;101087.63;;;9.08;86.44
77583;BME280;66726;52.388;9.986;2023-04-16T00:22:04;101094.94;;;9.06;86.92
77583;BME280;66726;52.388;9.986;2023-04-16T00:24:36;101092.97;;;9.08;86.59
77583;BME280;66726;52.388;9.986;2023-04-16T00:27:09;101090.75;;;9.03;86.98
77583;BME280;66726;52.388;9.986;2023-04-16T00:29:41;101092.41;;;8.95;86.93
77583;BME280;66726;52.388;9.986;2023-04-16T00:32:12;101084.13;;;8.98;87.07
77583;BME280;66726;52.388;9.986;2023-04-16T00:34:44;101093.94;;;8.97;86.66
77583;BME280;66726;52.388;9.986;2023-04-16T00:37:16;101092.13;;;8.98;86.51
77583;BME280;66726;52.388;9.986;2023-04-16T00:39:48;101096.38;;;9.00;86.66
77583;BME280;66726;52.388;9.986;2023-04-16T00:42:22;101094.09;;;8.96;87.05
77583;BME280;66726;52.388;9.986;2023-04-16T00:44:54;101098.88;;;8.92;86.60
77583;BME280;66726;52.388;9.986;2023-04-16T00:47:26;101104.22;;;8.92;86.40
77583;BME280;66726;52.388;9.986;2023-04-16T00:49:58;101096.63;;;8.88;87.16
77583;BME280;66726;52.388;9.986;2023-04-16T00:52:31;101098.75;;;8.84;87.05
77583;BME280;66726;52.388;9.986;2023-04-16T00:55:03;101100.31;;;8.87;86.36
77583;BME280;66726;52.388;9.986;2023-04-16T00:57:36;101097.31;;;8.80;86.13
77583;BME280;66726;52.388;9.986;2023-04-16T01:00:08;101093.56;;;8.83;86.13
77583;BME280;66726;52.388;9.986;2023-04-16T01:02:41;101090.03;;;8.73;85.96
77583;BME280;66726;52.388;9.986;2023-04-16T01:05:13;101093.00;;;8.70;85.99
77583;BME280;66726;52.388;9.986;2023-04-16T01:07:44;101091.44;;;8.67;86.27
77583;BME280;66726;52.388;9.986;2023-04-16T01:10:16;101096.19;;;8.63;86.52
77583;BME280;66726;52.388;9.986;2023-04-16T01:12:49;101092.44;;;8.66;86.03
77583;BME280;66726;52.388;9.986;2023-04-16T01:15:21;101099.72;;;8.64;86.09
77583;BME280;66726;52.388;9.986;2023-04-16T01:17:53;101102.53;;;8.62;86.11
77583;BME280;66726;52.388;9.986;2023-04-16T01:20:25;101103.78;;;8.68;85.49
77583;BME280;66726;52.388;9.986;2023-04-16T01:22:58;101108.00;;;8.71;85.84
77583;BME280;66726;52.388;9.986;2023-04-16T01:25:30;101113.63;;;8.68;85.71
77583;BME280;66726;52.388;9.986;2023-04-16T01:28:02;101119.69;;;8.70;86.15
77583;BME280;66726;52.388;9.986;2023-04-16T01:30:34;101123.63;;;8.65;85.28
77583;BME280;66726;52.388;9.986;2023-04-16T01:33:07;101133.72;;;8.72;85.33
77583;BME280;66726;52.388;9.986;2023-04-16T01:35:39;101136.69;;;8.69;85.34
77583;BME280;66726;52.388;9.986;2023-04-16T01:38:13;101141.44;;;8.65;85.45
77583;BME280;66726;52.388;9.986;2023-04-16T01:40:45;101138.22;;;8.61;85.76
77583;BME280;66726;52.388;9.986;2023-04-16T01:43:17;101139.06;;;8.62;86.34
77583;BME280;66726;52.388;9.986;2023-04-16T01:45:49;101143.81;;;8.58;85.64
77583;BME280;66726;52.388;9.986;2023-04-16T01:48:20;101140.19;;;8.59;85.71
77583;BME280;66726;52.388;9.986;2023-04-16T01:50:52;101138.22;;;8.61;85.67
77583;BME280;66726;52.388;9.986;2023-04-16T01:53:25;101146.03;;;8.53;86.26
77583;BME280;66726;52.388;9.986;2023-04-16T01:55:57;101143.09;;;8.56;86.55
77583;BME280;66726;52.388;9.986;2023-04-16T01:58:33;101147.47;;;8.57;86.12
77583;BME280;66726;52.388;9.986;2023-04-16T02:01:06;101149.16;;;8.58;86.05
77583;BME280;66726;52.388;9.986;2023-04-16T02:03:41;101140.28;;;8.48;86.01
77583;BME280;66726;52.388;9.986;2023-04-16T02:06:12;101143.25;;;8.45;86.05
77583;BME280;66726;52.388;9.986;2023-04-16T02:08:45;101148.69;;;8.34;86.71
77583;BME280;66726;52.388;9.986;2023-04-16T02:11:17;101143.75;;;8.39;86.48
77583;BME280;66726;52.388;9.986;2023-04-16T02:13:49;101144.50;;;8.41;86.56
77583;BME280;66726;52.388;9.986;2023-04-16T02:16:21;101153.03;;;8.35;86.52
77583;BME280;66726;52.388;9.986;2023-04-16T02:18:53;101158.38;;;8.35;87.08
77583;BME280;66726;52.388;9.986;2023-04-16T02:21:25;101156.13;;;8.40;86.77
77583;BME280;66726;52.388;9.986;2023-04-16T02:23:58;101162.44;;;8.39;86.22
77583;BME280;66726;52.388;9.986;2023-04-16T02:26:30;101166.16;;;8.27;86.73
77583;BME280;66726;52.388;9.986;2023-04-16T02:29:02;101165.66;;;8.33;86.57
77583;BME280;66726;52.388;9.986;2023-04-16T02:31:34;101163.97;;;8.32;86.47
77583;BME280;66726;52.388;9.986;2023-04-16T02:34:06;101163.78;;;8.24;86.41
77583;BME280;66726;52.388;9.986;2023-04-16T02:36:38;101170.66;;;8.27;86.28
77583;BME280;66726;52.388;9.986;2023-04-16T02:39:11;101168.97;;;8.26;86.40
77583;BME280;66726;52.388;9.986;2023-04-16T02:41:43;101165.13;;;8.18;86.40
77583;BME280;66726;52.388;9.986;2023-04-16T02:44:14;101172.31;;;8.18;86.48
77583;BME280;66726;52.388;9.986;2023-04-16T02:46:46;101167.50;;;8.12;86.76
77583;BME280;66726;52.388;9.986;2023-04-16T02:49:18;101173.91;;;8.00;86.87
77583;BME280;66726;52.388;9.986;2023-04-16T02:51:50;101175.34;;;8.04;86.83
77583;BME280;66726;52.388;9.986;2023-04-16T02:54:23;101169.75;;;8.07;86.47
77583;BME280;66726;52.388;9.986;2023-04-16T02:56:55;101178.16;;;8.12;86.53
77583;BME280;66726;52.388;9.986;2023-04-16T02:59:27;101177.34;;;8.11;86.98
77583;BME280;66726;52.388;9.986;2023-04-16T03:01:58;101180.03;;;8.11;86.46
77583;BME280;66726;52.388;9.986;2023-04-16T03:04:31;101185.13;;;7.94;86.66
77583;BME280;66726;52.388;9.986;2023-04-16T03:07:03;101181.72;;;7.92;86.74
77583;BME280;66726;52.388;9.986;2023-04-16T03:09:35;101190.47;;;7.94;87.01
77583;BME280;66726;52.388;9.986;2023-04-16T03:12:08;101175.75;;;7.99;87.15
77583;BME280;66726;52.388;9.986;2023-04-16T03:14:40;101182.88;;;7.99;86.29
77583;BME280;66726;52.388;9.986;2023-04-16T03:17:12;101180.38;;;7.97;86.95
77583;BME280;66726;52.388;9.986;2023-04-16T03:19:44;101186.38;;;7.90;87.18
77583;BME280;66726;52.388;9.986;2023-04-16T03:22:16;101184.84;;;7.97;86.47
77583;BME280;66726;52.388;9.986;2023-04-16T03:24:50;101188.50;;;7.96;86.28
77583;BME280;66726;52.388;9.986;2023-04-16T03:27:21;101185.56;;;7.99;86.48
77583;BME280;66726;52.388;9.986;2023-04-16T03:29:53;101195.63;;;7.95;86.87
77583;BME280;66726;52.388;9.986;2023-04-16T03:32:25;101196.09;;;8.00;86.23
77583;BME280;66726;52.388;9.986;2023-04-16T03:34:57;101200.59;;;8.00;86.35
77583;BME280;66726;52.388;9.986;2023-04-16T03:37:29;101187.09;;;8.01;85.74
77583;BME280;66726;52.388;9.986;2023-04-16T03:40:02;101197.34;;;7.96;86.41
77583;BME280;66726;52.388;9.986;2023-04-16T03:42:34;101196.63;;;7.94;86.62
77583;BME280;66726;52.388;9.986;2023-04-16T03:45:08;101203.59;;;7.86;86.70
77583;BME280;66726;52.388;9.986;2023-04-16T03:47:40;101197.81;;;7.81;86.86
77583;BME280;66726;52.388;9.986;2023-04-16T03:50:13;101196.81;;;7.82;86.89
77583;BME280;66726;52.388;9.986;2023-04-16T03:52:45;101203.66;;;7.75;87.25
77583;BME280;66726;52.388;9.986;2023-04-16T03:55:20;101206.06;;;7.78;87.30
77583;BME280;66726;52.388;9.986;2023-04-16T03:57:52;101201.72;;;7.77;87.17
77583;BME280;66726;52.388;9.986;2023-04-16T04:00:24;101208.13;;;7.74;87.71
77583;BME280;66726;52.388;9.986;2023-04-16T04:02:55;101203.28;;;7.79;87.29
77583;BME280;66726;52.388;9.986;2023-04-16T04:05:27;101208.66;;;7.68;87.15
77583;BME280;66726;52.388;9.986;2023-04-16T04:07:59;101199.00;;;7.67;87.05
77583;BME280;66726;52.388;9.986;2023-04-16T04:10:34;101194.22;;;7.71;87.78
77583;BME280;66726;52.388;9.986;2023-04-16T04:13:08;101199.22;;;7.64;87.75
77583;BME280;66726;52.388;9.986;2023-04-16T04:15:40;101207.38;;;7.62;88.00
77583;BME280;66726;52.388;9.986;2023-04-16T04:18:12;101216.53;;;7.70;87.49
77583;BME280;66726;52.388;9.986;2023-04-16T04:20:44;101212.50;;;7.75;87.49
77583;BME280;66726;52.388;9.986;2023-04-16T04:23:16;101217.72;;;7.77;87.30
77583;BME280;66726;52.388;9.986;2023-04-16T04:25:50;101225.72;;;7.77;86.94
77583;BME280;66726;52.388;9.986;2023-04-16T04:28:22;101219.22;;;7.70;87.80
77583;BME280;66726;52.388;9.986;2023-04-16T04:30:53;101221.88;;;7.70;87.83
77583;BME280;66726;52.388;9.986;2023-04-16T04:33:25;101219.31;;;7.68;88.02
77583;BME280;66726;52.388;9.986;2023-04-16T04:35:57;101223.81;;;7.68;87.89
77583;BME280;66726;52.388;9.986;2023-04-16T04:38:29;101213.88;;;7.70;87.75
77583;BME280;66726;52.388;9.986;2023-04-16T04:41:02;101223.69;;;7.69;87.24
77583;BME280;66726;52.388;9.986;2023-04-16T04:43:34;101222.56;;;7.72;87.50
77583;BME280;66726;52.388;9.986;2023-04-16T04:46:06;101218.34;;;7.69;87.71
77583;BME280;66726;52.388;9.986;2023-04-16T04:48:38;101211.81;;;7.73;87.33
77583;BME280;66726;52.388;9.986;2023-04-16T04:51:09;101221.16;;;7.68;87.69
77583;BME280;66726;52.388;9.986;2023-04-16T04:53:41;101227.59;;;7.65;88.03
77583;BME280;66726;52.388;9.986;2023-04-16T04:56:14;101227.06;;;7.71;87.88
77583;BME280;66726;52.388;9.986;2023-04-16T04:58:48;101244.47;;;7.75;87.22
77583;BME280;66726;52.388;9.986;2023-04-16T05:01:20;101239.94;;;7.66;87.25
77583;BME280;66726;52.388;9.986;2023-04-16T05:03:51;101240.78;;;7.67;87.55
77583;BME280;66726;52.388;9.986;2023-04-16T05:06:23;101236.44;;;7.65;87.59
77583;BME280;66726;52.388;9.986;2023-04-16T05:08:59;101233.25;;;7.72;86.87
77583;BME280;66726;52.388;9.986;2023-04-16T05:11:32;101247.31;;;7.74;87.19
77583;BME280;66726;52.388;9.986;2023-04-16T05:14:04;101250.66;;;7.76;86.86
77583;BME280;66726;52.388;9.986;2023-04-16T05:16:37;101253.34;;;7.76;87.34
77583;BME280;66726;52.388;9.986;2023-04-16T05:19:09;101255.03;;;7.77;86.77
77583;BME280;66726;52.388;9.986;2023-04-16T05:21:41;101267.25;;;7.79;86.94
77583;BME280;66726;52.388;9.986;2023-04-16T05:24:13;101263.88;;;7.77;86.77
77583;BME280;66726;52.388;9.986;2023-04-16T05:26:46;101266.66;;;7.76;86.85
77583;BME280;66726;52.388;9.986;2023-04-16T05:29:18;101263.28;;;7.74;86.95
77583;BME280;66726;52.388;9.986;2023-04-16T05:31:50;101268.47;;;7.75;87.21
77583;BME280;66726;52.388;9.986;2023-04-16T05:34:21;101270.56;;;7.72;87.34
77583;BME280;66726;52.388;9.986;2023-04-16T05:36:53;101273.09;;;7.73;86.98
77583;BME280;66726;52.388;9.986;2023-04-16T05:39:25;101277.59;;;7.73;87.59
77583;BME280;66726;52.388;9.986;2023-04-16T05:41:58;101276.84;;;7.71;87.46
77583;BME280;66726;52.388;9.986;2023-04-16T05:44:30;101280.38;;;7.71;87.14
77583;BME280;66726;52.388;9.986;2023-04-16T05:47:02;101280.50;;;7.70;87.03
77583;BME280;66726;52.388;9.986;2023-04-16T05:49:34;101283.63;;;7.75;87.18
77583;BME280;66726;52.388;9.986;2023-04-16T05:52:06;101281.81;;;7.75;87.24
77583;BME280;66726;52.388;9.986;2023-04-16T05:54:38;101300.59;;;7.74;87.71
77583;BME280;66726;52.388;9.986;2023-04-16T05:57:11;101291.59;;;7.75;87.03
77583;BME280;66726;52.388;9.986;2023-04-16T05:59:43;101294.16;;;7.76;87.00
77583;BME280;66726;52.388;9.986;2023-04-16T06:02:15;101296.69;;;7.78;87.35
77583;BME280;66726;52.388;9.986;2023-04-16T06:04:48;101283.50;;;7.76;86.85
77583;BME280;66726;52.388;9.986;2023-04-16T06:07:20;101296.69;;;7.78;86.92
77583;BME280;66726;52.388;9.986;2023-04-16T06:09:52;101303.97;;;7.76;87.05
77583;BME280;66726;52.388;9.986;2023-04-16T06:12:24;101309.56;;;7.73;87.63
77583;BME280;66726;52.388;9.986;2023-04-16T06:14:56;101311.00;;;7.77;86.78
77583;BME280;66726;52.388;9.986;2023-04-16T06:17:28;101316.34;;;7.77;87.35
77583;BME280;66726;52.388;9.986;2023-04-16T06:20:00;101310.75;;;7.80;87.33
77583;BME280;66726;52.388;9.986;2023-04-16T06:22:32;101316.34;;;7.77;87.23
77583;BME280;66726;52.388;9.986;2023-04-16T06:25:04;101315.47;;;7.76;87.50
77583;BME280;66726;52.388;9.986;2023-04-16T06:27:37;101312.22;;;7.73;87.69
77583;BME280;66726;52.388;9.986;2023-04-16T06:30:13;101319.50;;;7.71;87.44
77583;BME280;66726;52.388;9.986;2023-04-16T06:32:46;101324.59;;;7.74;87.53
77583;BME280;66726;52.388;9.986;2023-04-16T06:35:17;101322.63;;;7.76;87.02
77583;BME280;66726;52.388;9.986;2023-04-16T06:37:49;101328.28;;;7.82;87.07
77583;BME280;66726;52.388;9.986;2023-04-16T06:40:21;101340.06;;;7.80;86.85
77583;BME280;66726;52.388;9.986;2023-04-16T06:42:54;101334.25;;;7.75;86.52
77583;BME280;66726;52.388;9.986;2023-04-16T06:45:26;101335.63;;;7.69;87.07
77583;BME280;66726;52.388;9.986;2023-04-16T06:47:58;101347.66;;;7.63;86.53
77583;BME280;66726;52.388;9.986;2023-04-16T06:50:31;101348.81;;;7.71;86.58
77583;BME280;66726;52.388;9.986;2023-04-16T06:53:03;101345.19;;;7.72;87.00
77583;BME280;66726;52.388;9.986;2023-04-16T06:55:34;101348.56;;;7.74;87.13
77583;BME280;66726;52.388;9.986;2023-04-16T06:58:07;101348.81;;;7.71;86.29
77583;BME280;66726;52.388;9.986;2023-04-16T07:00:39;101350.06;;;7.67;86.72
77583;BME280;66726;52.388;9.986;2023-04-16T07:03:11;101351.88;;;7.66;86.41
77583;BME280;66726;52.388;9.986;2023-04-16T07:05:43;101357.06;;;7.68;86.37
77583;BME280;66726;52.388;9.986;2023-04-16T07:08:15;101348.81;;;7.71;86.20
77583;BME280;66726;52.388;9.986;2023-04-16T07:10:47;101347.59;;;7.75;86.60
77583;BME280;66726;52.388;9.986;2023-04-16T07:13:20;101345.44;;;7.69;85.87
77583;BME280;66726;52.388;9.986;2023-04-16T07:15:52;101349.91;;;7.68;86.24
77583;BME280;66726;52.388;9.986;2023-04-16T07:18:24;101348.81;;;7.71;85.69
77583;BME280;66726;52.388;9.986;2023-04-16T07:20:55;101351.94;;;7.76;85.72
77583;BME280;66726;52.388;9.986;2023-04-16T07:23:27;101348.06;;;7.80;86.28
77583;BME280;66726;52.388;9.986;2023-04-16T07:25:59;101344.28;;;7.82;86.26
77583;BME280;66726;52.388;9.986;2023-04-16T07:28:32;101356.75;;;7.82;85.62
77583;BME280;66726;52.388;9.986;2023-04-16T07:31:04;101357.34;;;7.85;85.69
77583;BME280;66726;52.388;9.986;2023-04-16T07:33:36;101356.97;;;7.90;85.65
77583;BME280;66726;52.388;9.986;2023-04-16T07:36:09;101369.19;;;7.92;85.60
77583;BME280;66726;52.388;9.986;2023-04-16T07:38:41;101366.41;;;7.94;85.66
77583;BME280;66726;52.388;9.986;2023-04-16T07:41:13;101366.28;;;7.95;85.03
77583;BME280;66726;52.388;9.986;2023-04-16T07:43:46;101368.69;;;7.98;85.00
77583;BME280;66726;52.388;9.986;2023-04-16T07:46:18;101373.06;;;7.99;85.89
77583;BME280;66726;52.388;9.986;2023-04-16T07:48:50;101377.28;;;8.02;85.07
77583;BME280;66726;52.388;9.986;2023-04-16T07:51:22;101382.59;;;8.02;85.34
77583;BME280;66726;52.388;9.986;2023-04-16T07:53:54;101380.41;;;8.07;85.39
77583;BME280;66726;52.388;9.986;2023-04-16T07:56:26;101383.34;;;8.04;85.02
77583;BME280;66726;52.388;9.986;2023-04-16T07:58:59;101399.19;;;8.05;85.14
77583;BME280;66726;52.388;9.986;2023-04-16T08:01:51;101390.13;;;8.08;85.05
77583;BME280;66726;52.388;9.986;2023-04-16T08:04:22;101393.75;;;8.07;84.83
77583;BME280;66726;52.388;9.986;2023-04-16T08:06:56;101398.81;;;8.10;84.81
77583;BME280;66726;52.388;9.986;2023-04-16T08:09:29;101397.84;;;8.11;84.58
77583;BME280;66726;52.388;9.986;2023-04-16T08:12:03;101399.16;;;8.16;84.51
77583;BME280;66726;52.388;9.986;2023-04-16T08:14:36;101410.28;;;8.22;84.65
77583;BME280;66726;52.388;9.986;2023-04-16T08:17:08;101413.41;;;8.27;84.69
77583;BME280;66726;52.388;9.986;2023-04-16T08:19:40;101408.00;;;8.28;84.87
77583;BME280;66726;52.388;9.986;2023-04-16T08:22:14;101411.59;;;8.27;84.14
77583;BME280;66726;52.388;9.986;2023-04-16T08:24:46;101417.56;;;8.31;84.13
77583;BME280;66726;52.388;9.986;2023-04-16T08:27:18;101414.72;;;8.32;83.84
77583;BME280;66726;52.388;9.986;2023-04-16T08:29:51;101421.78;;;8.33;83.80
77583;BME280;66726;52.388;9.986;2023-04-16T08:32:24;101421.66;;;8.35;84.24
77583;BME280;66726;52.388;9.986;2023-04-16T08:34:56;101423.22;;;8.37;84.56
77583;BME280;66726;52.388;9.986;2023-04-16T08:37:28;101428.53;;;8.37;84.47
77583;BME280;66726;52.388;9.986;2023-04-16T08:40:00;101429.41;;;8.38;83.98
77583;BME280;66726;52.388;9.986;2023-04-16T08:42:44;101431.09;;;8.39;84.35
77583;BME280;66726;52.388;9.986;2023-04-16T08:45:19;101435.44;;;8.40;84.79
77583;BME280;66726;52.388;9.986;2023-04-16T08:47:52;101437.84;;;8.43;84.03
77583;BME280;66726;52.388;9.986;2023-04-16T08:50:27;101443.06;;;8.44;84.37
77583;BME280;66726;52.388;9.986;2023-04-16T08:53:05;101446.69;;;8.43;83.98
77583;BME280;66726;52.388;9.986;2023-04-16T08:55:42;101449.38;;;8.43;83.76
77583;BME280;66726;52.388;9.986;2023-04-16T08:58:21;101445.72;;;8.44;83.97
77583;BME280;66726;52.388;9.986;2023-04-16T09:00:55;101453.84;;;8.43;83.76
77583;BME280;66726;52.388;9.986;2023-04-16T09:03:28;101457.53;;;8.42;83.82
77583;BME280;66726;52.388;9.986;2023-04-16T09:06:03;101455.69;;;8.42;83.99
77583;BME280;66726;52.388;9.986;2023-04-16T09:08:38;101453.84;;;8.43;83.85
77583;BME280;66726;52.388;9.986;2023-04-16T09:11:11;101449.09;;;8.46;83.87
77583;BME280;66726;52.388;9.986;2023-04-16T09:13:43;101456.28;;;8.46;84.02
77583;BME280;66726;52.388;9.986;2023-04-16T09:16:17;101464.84;;;8.49;84.03
77583;BME280;66726;52.388;9.986;2023-04-16T09:18:53;101458.81;;;8.47;83.90
77583;BME280;66726;52.388;9.986;2023-04-16T09:21:25;101455.88;;;8.50;83.52
77583;BME280;66726;52.388;9.986;2023-04-16T09:23:57;101459.28;;;8.52;83.65
77583;BME280;66726;52.388;9.986;2023-04-16T09:26:30;101458.56;;;8.50;83.93
77583;BME280;66726;52.388;9.986;2023-04-16T09:29:03;101457.31;;;8.54;83.15
77583;BME280;66726;52.388;9.986;2023-04-16T09:31:36;101468.59;;;8.58;83.25
77583;BME280;66726;52.388;9.986;2023-04-16T09:34:10;101468.59;;;8.58;83.38
77583;BME280;66726;52.388;9.986;2023-04-16T09:36:42;101470.66;;;8.54;83.46
77583;BME280;66726;52.388;9.986;2023-04-16T09:39:21;101476.72;;;8.56;83.69
77583;BME280;66726;52.388;9.986;2023-04-16T09:41:55;101480.13;;;8.58;83.47
77583;BME280;66726;52.388;9.986;2023-04-16T09:44:38;101484.47;;;8.59;83.48
77583;BME280;66726;52.388;9.986;2023-04-16T09:47:11;101481.81;;;8.59;83.72
77583;BME280;66726;52.388;9.986;2023-04-16T09:49:46;101485.31;;;8.60;83.79
77583;BME280;66726;52.388;9.986;2023-04-16T09:52:21;101486.56;;;8.56;84.61
77583;BME280;66726;52.388;9.986;2023-04-16T09:54:55;101499.16;;;8.54;85.82
77583;BME280;66726;52.388;9.986;2023-04-16T09:57:27;101488.38;;;8.55;86.09
77583;BME280;66726;52.388;9.986;2023-04-16T10:00:06;101494.69;;;8.54;86.79
77583;BME280;66726;52.388;9.986;2023-04-16T10:02:42;101486.78;;;8.53;86.13
77583;BME280;66726;52.388;9.986;2023-04-16T10:05:17;101502.22;;;8.49;86.88
77583;BME280;66726;52.388;9.986;2023-04-16T10:07:52;101504.78;;;8.51;86.93
77583;BME280;66726;52.388;9.986;2023-04-16T10:10:24;101507.09;;;8.44;88.10
77583;BME280;66726;52.388;9.986;2023-04-16T10:12:57;101513.03;;;8.48;88.11
77583;BME280;66726;52.388;9.986;2023-04-16T10:15:29;101515.13;;;8.44;88.17
77583;BME280;66726;52.388;9.986;2023-04-16T10:18:03;101518.75;;;8.43;88.97
77583;BME280;66726;52.388;9.986;2023-04-16T10:20:36;101511.75;;;8.42;89.39
77583;BME280;66726;52.388;9.986;2023-04-16T10:23:10;101525.09;;;8.42;90.09
77583;BME280;66726;52.388;9.986;2023-04-16T10:25:45;101518.63;;;8.45;89.99
77583;BME280;66726;52.388;9.986;2023-04-16T10:28:18;101523.22;;;8.43;91.05
77583;BME280;66726;52.388;9.986;2023-04-16T10:30:52;101523.97;;;8.45;90.57
77583;BME280;66726;52.388;9.986;2023-04-16T10:33:29;101522.41;;;8.42;90.79
77583;BME280;66726;52.388;9.986;2023-04-16T10:36:10;101526.91;;;8.42;90.63
77583;BME280;66726;52.388;9.986;2023-04-16T10:38:46;101532.09;;;8.43;91.12
77583;BME280;66726;52.388;9.986;2023-04-16T10:41:18;101526.63;;;8.45;91.05
77583;BME280;66726;52.388;9.986;2023-04-16T10:44:02;101522.16;;;8.45;90.93
77583;BME280;66726;52.388;9.986;2023-04-16T10:46:40;101525.53;;;8.47;91.33
77583;BME280;66726;52.388;9.986;2023-04-16T10:49:24;101536.19;;;8.47;91.61
77583;BME280;66726;52.388;9.986;2023-04-16T10:51:58;101537.16;;;8.46;91.81
77583;BME280;66726;52.388;9.986;2023-04-16T10:54:37;101536.19;;;8.47;91.97
77583;BME280;66726;52.388;9.986;2023-04-16T10:57:16;101541.44;;;8.49;92.16
77583;BME280;66726;52.388;9.986;2023-04-16T10:59:50;101538.75;;;8.49;91.87
77583;BME280;66726;52.388;9.986;2023-04-16T11:02:22;101539.56;;;8.49;92.62
77583;BME280;66726;52.388;9.986;2023-04-16T11:05:02;101532.31;;;8.51;91.99
77583;BME280;66726;52.388;9.986;2023-04-16T11:07:43;101542.25;;;8.49;92.17
77583;BME280;66726;52.388;9.986;2023-04-16T11:10:19;101534.84;;;8.53;92.28
77583;BME280;66726;52.388;9.986;2023-04-16T11:12:51;101533.28;;;8.50;92.58
77583;BME280;66726;52.388;9.986;2023-04-16T11:15:26;101538.34;;;8.53;92.61
77583;BME280;66726;52.388;9.986;2023-04-16T11:18:01;101538.25;;;8.55;92.83
77583;BME280;66726;52.388;9.986;2023-04-16T11:20:35;101540.75;;;8.56;92.77
77583;BME280;66726;52.388;9.986;2023-04-16T11:23:13;101538.84;;;8.58;93.07
77583;BME280;66726;52.388;9.986;2023-04-16T11:25:45;101533.22;;;8.61;92.66
77583;BME280;66726;52.388;9.986;2023-04-16T11:28:17;101542.69;;;8.65;92.19
77583;BME280;66726;52.388;9.986;2023-04-16T11:30:49;101538.91;;;8.68;92.65
77583;BME280;66726;52.388;9.986;2023-04-16T11:33:21;101540.59;;;8.69;93.47
77583;BME280;66726;52.388;9.986;2023-04-16T11:36:00;101540.97;;;8.64;93.34
77583;BME280;66726;52.388;9.986;2023-04-16T11:38:40;101536.22;;;8.68;93.24
77583;BME280;66726;52.388;9.986;2023-04-16T11:41:19;101537.94;;;8.69;93.51
77583;BME280;66726;52.388;9.986;2023-04-16T11:43:52;101539.50;;;8.72;93.19
77583;BME280;66726;52.388;9.986;2023-04-16T11:46:31;101539.50;;;8.72;93.30
77583;BME280;66726;52.388;9.986;2023-04-16T11:49:08;101543.59;;;8.76;93.11
77583;BME280;66726;52.388;9.986;2023-04-16T11:51:46;101549.66;;;8.78;92.97
77583;BME280;66726;52.388;9.986;2023-04-16T11:54:25;101546.00;;;8.79;92.83
77583;BME280;66726;52.388;9.986;2023-04-16T11:56:57;101545.75;;;8.82;92.69
77583;BME280;66726;52.388;9.986;2023-04-16T11:59:28;101547.44;;;8.83;92.23
77583;BME280;66726;52.388;9.986;2023-04-16T12:02:00;101537.47;;;8.85;92.29
77583;BME280;66726;52.388;9.986;2023-04-16T12:04:34;101549.88;;;8.86;91.89
77583;BME280;66726;52.388;9.986;2023-04-16T12:07:15;101552.53;;;8.86;91.94
77583;BME280;66726;52.388;9.986;2023-04-16T12:09:46;101545.22;;;8.88;92.20
77583;BME280;66726;52.388;9.986;2023-04-16T12:12:31;101548.63;;;8.90;92.19
77583;BME280;66726;52.388;9.986;2023-04-16T12:15:06;101555.91;;;8.88;91.74
77583;BME280;66726;52.388;9.986;2023-04-16T12:17:38;101548.63;;;8.90;92.06
77583;BME280;66726;52.388;9.986;2023-04-16T12:20:13;101551.03;;;8.93;92.10
77583;BME280;66726;52.388;9.986;2023-04-16T12:22:50;101549.22;;;8.93;92.11
77583;BME280;66726;52.388;9.986;2023-04-16T12:25:27;101546.41;;;8.95;92.04
77583;BME280;66726;52.388;9.986;2023-04-16T12:27:59;101549.06;;;8.95;92.50
77583;BME280;66726;52.388;9.986;2023-04-16T12:30:32;101549.06;;;8.95;92.39
77583;BME280;66726;52.388;9.986;2023-04-16T12:33:20;101542.75;;;8.96;92.29
77583;BME280;66726;52.388;9.986;2023-04-16T12:35:52;101543.47;;;8.98;92.22
77583;BME280;66726;52.388;9.986;2023-04-16T12:38:25;101546.72;;;9.01;93.05
77583;BME280;66726;52.388;9.986;2023-04-16T12:40:57;101549.88;;;9.06;92.88
77583;BME280;66726;52.388;9.986;2023-04-16T12:43:31;101543.13;;;9.12;93.24
77583;BME280;66726;52.388;9.986;2023-04-16T12:46:03;101548.09;;;9.16;93.49
77583;BME280;66726;52.388;9.986;2023-04-16T12:48:36;101542.09;;;9.24;93.76
77583;BME280;66726;52.388;9.986;2023-04-16T12:51:07;101548.84;;;9.28;93.28
77583;BME280;66726;52.388;9.986;2023-04-16T12:53:41;101546.38;;;9.36;93.67
77583;BME280;66726;52.388;9.986;2023-04-16T12:56:12;101551.19;;;9.42;93.05
77583;BME280;66726;52.388;9.986;2023-04-16T12:58:45;101548.22;;;9.45;92.79
77583;BME280;66726;52.388;9.986;2023-04-16T13:01:21;101553.91;;;9.52;92.58
77583;BME280;66726;52.388;9.986;2023-04-16T13:03:54;101547.19;;;9.57;92.82
77583;BME280;66726;52.388;9.986;2023-04-16T13:06:25;101547.38;;;9.65;92.75
77583;BME280;66726;52.388;9.986;2023-04-16T13:08:59;101557.78;;;9.68;91.73
77583;BME280;66726;52.388;9.986;2023-04-16T13:11:31;101553.03;;;9.72;91.55
77583;BME280;66726;52.388;9.986;2023-04-16T13:14:02;101551.91;;;9.75;92.29
77583;BME280;66726;52.388;9.986;2023-04-16T13:16:34;101548.25;;;9.76;91.50
77583;BME280;66726;52.388;9.986;2023-04-16T13:19:08;101555.00;;;9.80;91.90
77583;BME280;66726;52.388;9.986;2023-04-16T13:21:40;101557.16;;;9.86;91.89
77583;BME280;66726;52.388;9.986;2023-04-16T13:24:13;101553.19;;;9.90;91.25
77583;BME280;66726;52.388;9.986;2023-04-16T13:26:45;101552.41;;;9.99;91.51
77583;BME280;66726;52.388;9.986;2023-04-16T13:29:17;101547.19;;;10.07;91.43
77583;BME280;66726;52.388;9.986;2023-04-16T13:31:50;101547.38;;;10.15;91.42